sensor_id;sensor_type;location;lat;lon;timestamp;temperature;humidity
57652;DHT22;43480;53.116;6.734;2022-08-05T00:02:03;18.60;99.90
57652;DHT22;43480;53.116;6.734;2022-08-05T00:04:29;18.60;99.90
57652;DHT22;43480;53.116;6.734;2022-08-05T00:06:54;18.60;99.90
57652;DHT22;43480;53.116;6.734;2022-08-05T00:09:20;18.60;99.90
57652;DHT22;43480;53.116;6.734;2022-08-05T00:11:46;18.60;99.90
57652;DHT22;43480;53.116;6.734;2022-08-05T00:14:11;18.60;99.90
57652;DHT22;43480;53.116;6.734;2022-08-05T00:16:37;18.60;99.90
57652;DHT22;43480;53.116;6.734;2022-08-05T00:19:02;18.60;99.90
57652;DHT22;43480;53.116;6.734;2022-08-05T00:21:28;18.60;99.90
57652;DHT22;43480;53.116;6.734;2022-08-05T00:23:53;18.60;99.90
57652;DHT22;43480;53.116;6.734;2022-08-05T00:26:19;18.60;99.90
57652;DHT22;43480;53.116;6.734;2022-08-05T00:28:45;18.60;99.90
57652;DHT22;43480;53.116;6.734;2022-08-05T00:31:10;18.50;99.90
57652;DHT22;43480;53.116;6.734;2022-08-05T00:33:36;18.50;99.90
57652;DHT22;43480;53.116;6.734;2022-08-05T00:36:02;18.50;99.90
57652;DHT22;43480;53.116;6.734;2022-08-05T00:38:27;18.50;99.90
57652;DHT22;43480;53.116;6.734;2022-08-05T00:40:54;18.50;99.90
57652;DHT22;43480;53.116;6.734;2022-08-05T00:43:20;18.50;99.90
57652;DHT22;43480;53.116;6.734;2022-08-05T00:45:45;18.50;99.90
57652;DHT22;43480;53.116;6.734;2022-08-05T00:48:16;18.40;99.90
57652;DHT22;43480;53.116;6.734;2022-08-05T00:50:43;18.40;99.90
57652;DHT22;43480;53.116;6.734;2022-08-05T00:53:09;18.40;99.90
57652;DHT22;43480;53.116;6.734;2022-08-05T00:55:35;18.40;99.90
57652;DHT22;43480;53.116;6.734;2022-08-05T00:58:01;18.40;99.90
57652;DHT22;43480;53.116;6.734;2022-08-05T01:00:27;18.40;99.90
57652;DHT22;43480;53.116;6.734;2022-08-05T01:02:53;18.40;99.90
57652;DHT22;43480;53.116;6.734;2022-08-05T01:05:19;18.40;99.90
57652;DHT22;43480;53.116;6.734;2022-08-05T01:07:44;18.40;99.90
57652;DHT22;43480;53.116;6.734;2022-08-05T01:10:11;18.40;99.90
57652;DHT22;43480;53.116;6.734;2022-08-05T01:12:37;18.40;99.90
57652;DHT22;43480;53.116;6.734;2022-08-05T01:15:05;18.40;99.90
57652;DHT22;43480;53.116;6.734;2022-08-05T01:25:28;18.30;99.90
57652;DHT22;43480;53.116;6.734;2022-08-05T01:30:28;18.20;99.90
57652;DHT22;43480;53.116;6.734;2022-08-05T01:32:55;18.10;99.90
57652;DHT22;43480;53.116;6.734;2022-08-05T01:35:24;18.10;99.90
57652;DHT22;43480;53.116;6.734;2022-08-05T01:37:52;18.10;99.90
57652;DHT22;43480;53.116;6.734;2022-08-05T01:40:18;18.10;99.90
57652;DHT22;43480;53.116;6.734;2022-08-05T01:42:45;18.10;99.90
57652;DHT22;43480;53.116;6.734;2022-08-05T01:45:13;18.20;99.90
57652;DHT22;43480;53.116;6.734;2022-08-05T01:47:39;18.20;99.90
57652;DHT22;43480;53.116;6.734;2022-08-05T01:50:15;18.20;99.90
57652;DHT22;43480;53.116;6.734;2022-08-05T01:52:42;18.20;99.90
57652;DHT22;43480;53.116;6.734;2022-08-05T01:55:08;18.20;99.90
57652;DHT22;43480;53.116;6.734;2022-08-05T01:57:37;18.20;99.90
57652;DHT22;43480;53.116;6.734;2022-08-05T02:00:04;18.20;99.90
57652;DHT22;43480;53.116;6.734;2022-08-05T02:02:30;18.30;99.90
57652;DHT22;43480;53.116;6.734;2022-08-05T02:04:57;18.30;99.90
57652;DHT22;43480;53.116;6.734;2022-08-05T02:07:24;18.20;99.90
57652;DHT22;43480;53.116;6.734;2022-08-05T02:09:50;18.20;99.90
57652;DHT22;43480;53.116;6.734;2022-08-05T02:14:42;18.20;99.90
57652;DHT22;43480;53.116;6.734;2022-08-05T02:17:15;18.20;99.90
57652;DHT22;43480;53.116;6.734;2022-08-05T02:19:50;18.20;99.90
57652;DHT22;43480;53.116;6.734;2022-08-05T02:22:41;18.20;99.90
57652;DHT22;43480;53.116;6.734;2022-08-05T02:25:09;18.20;99.90
57652;DHT22;43480;53.116;6.734;2022-08-05T02:27:37;18.20;99.90
57652;DHT22;43480;53.116;6.734;2022-08-05T02:30:03;18.20;99.90
57652;DHT22;43480;53.116;6.734;2022-08-05T02:32:29;18.20;99.90
57652;DHT22;43480;53.116;6.734;2022-08-05T02:34:59;18.20;99.90
57652;DHT22;43480;53.116;6.734;2022-08-05T02:37:25;18.20;99.90
57652;DHT22;43480;53.116;6.734;2022-08-05T02:39:52;18.20;99.90
57652;DHT22;43480;53.116;6.734;2022-08-05T02:42:18;18.20;99.90
57652;DHT22;43480;53.116;6.734;2022-08-05T02:44:44;18.20;99.90
57652;DHT22;43480;53.116;6.734;2022-08-05T02:47:10;18.20;99.90
57652;DHT22;43480;53.116;6.734;2022-08-05T02:49:37;18.10;99.90
57652;DHT22;43480;53.116;6.734;2022-08-05T02:52:08;18.20;99.90
57652;DHT22;43480;53.116;6.734;2022-08-05T02:54:33;18.20;99.90
57652;DHT22;43480;53.116;6.734;2022-08-05T02:57:00;18.10;99.90
57652;DHT22;43480;53.116;6.734;2022-08-05T02:59:26;18.10;99.90
57652;DHT22;43480;53.116;6.734;2022-08-05T03:01:52;18.10;99.90
57652;DHT22;43480;53.116;6.734;2022-08-05T03:04:22;18.10;99.90
57652;DHT22;43480;53.116;6.734;2022-08-05T03:06:47;18.10;99.90
57652;DHT22;43480;53.116;6.734;2022-08-05T03:09:13;18.10;99.90
57652;DHT22;43480;53.116;6.734;2022-08-05T03:11:42;18.10;99.90
57652;DHT22;43480;53.116;6.734;2022-08-05T03:14:10;18.00;99.90
57652;DHT22;43480;53.116;6.734;2022-08-05T03:16:36;18.00;99.90
57652;DHT22;43480;53.116;6.734;2022-08-05T03:19:02;18.00;99.90
57652;DHT22;43480;53.116;6.734;2022-08-05T03:21:28;18.10;99.90
57652;DHT22;43480;53.116;6.734;2022-08-05T03:23:53;18.00;99.90
57652;DHT22;43480;53.116;6.734;2022-08-05T03:26:19;18.00;99.90
57652;DHT22;43480;53.116;6.734;2022-08-05T03:28:45;18.10;99.90
57652;DHT22;43480;53.116;6.734;2022-08-05T03:31:10;18.00;99.90
57652;DHT22;43480;53.116;6.734;2022-08-05T03:33:36;18.00;99.90
57652;DHT22;43480;53.116;6.734;2022-08-05T03:36:02;18.10;99.90
57652;DHT22;43480;53.116;6.734;2022-08-05T03:38:29;18.00;99.90
57652;DHT22;43480;53.116;6.734;2022-08-05T03:40:54;18.00;99.90
57652;DHT22;43480;53.116;6.734;2022-08-05T03:43:20;18.00;99.90
57652;DHT22;43480;53.116;6.734;2022-08-05T03:45:48;18.00;99.90
57652;DHT22;43480;53.116;6.734;2022-08-05T03:48:14;18.00;99.90
57652;DHT22;43480;53.116;6.734;2022-08-05T03:50:41;18.00;99.90
57652;DHT22;43480;53.116;6.734;2022-08-05T03:53:07;17.90;99.90
57652;DHT22;43480;53.116;6.734;2022-08-05T03:55:36;17.90;99.90
57652;DHT22;43480;53.116;6.734;2022-08-05T03:58:04;17.90;99.90
57652;DHT22;43480;53.116;6.734;2022-08-05T04:00:33;17.90;99.90
57652;DHT22;43480;53.116;6.734;2022-08-05T04:03:00;17.90;99.90
57652;DHT22;43480;53.116;6.734;2022-08-05T04:05:28;17.90;99.90
57652;DHT22;43480;53.116;6.734;2022-08-05T04:07:54;17.90;99.90
57652;DHT22;43480;53.116;6.734;2022-08-05T04:10:20;17.90;99.90
57652;DHT22;43480;53.116;6.734;2022-08-05T04:12:45;17.90;99.90
57652;DHT22;43480;53.116;6.734;2022-08-05T04:15:11;18.00;99.90
57652;DHT22;43480;53.116;6.734;2022-08-05T04:17:37;18.00;99.90
57652;DHT22;43480;53.116;6.734;2022-08-05T04:20:02;17.90;99.90
57652;DHT22;43480;53.116;6.734;2022-08-05T04:22:28;17.90;99.90
57652;DHT22;43480;53.116;6.734;2022-08-05T04:24:54;17.90;99.90
57652;DHT22;43480;53.116;6.734;2022-08-05T04:27:19;17.90;99.90
57652;DHT22;43480;53.116;6.734;2022-08-05T04:29:45;17.90;99.90
57652;DHT22;43480;53.116;6.734;2022-08-05T04:32:10;17.80;99.90
57652;DHT22;43480;53.116;6.734;2022-08-05T04:34:36;17.90;99.90
57652;DHT22;43480;53.116;6.734;2022-08-05T04:37:02;17.80;99.90
57652;DHT22;43480;53.116;6.734;2022-08-05T04:39:28;17.90;99.90
57652;DHT22;43480;53.116;6.734;2022-08-05T04:41:53;17.90;99.90
57652;DHT22;43480;53.116;6.734;2022-08-05T04:44:19;17.90;99.90
57652;DHT22;43480;53.116;6.734;2022-08-05T04:46:44;17.90;99.90
57652;DHT22;43480;53.116;6.734;2022-08-05T04:49:10;17.90;99.90
57652;DHT22;43480;53.116;6.734;2022-08-05T04:51:35;17.90;99.90
57652;DHT22;43480;53.116;6.734;2022-08-05T04:54:01;17.90;99.90
57652;DHT22;43480;53.116;6.734;2022-08-05T04:56:26;17.90;99.90
57652;DHT22;43480;53.116;6.734;2022-08-05T04:58:52;17.90;99.90
57652;DHT22;43480;53.116;6.734;2022-08-05T05:01:17;17.90;99.90
57652;DHT22;43480;53.116;6.734;2022-08-05T05:03:43;17.90;99.90
57652;DHT22;43480;53.116;6.734;2022-08-05T05:06:09;17.90;99.90
57652;DHT22;43480;53.116;6.734;2022-08-05T05:08:35;17.80;99.90
57652;DHT22;43480;53.116;6.734;2022-08-05T05:11:00;17.90;99.90
57652;DHT22;43480;53.116;6.734;2022-08-05T05:13:26;17.90;99.90
57652;DHT22;43480;53.116;6.734;2022-08-05T05:15:51;18.00;99.90
57652;DHT22;43480;53.116;6.734;2022-08-05T05:18:17;18.00;99.90
57652;DHT22;43480;53.116;6.734;2022-08-05T05:20:43;18.00;99.90
57652;DHT22;43480;53.116;6.734;2022-08-05T05:23:08;18.10;99.90
57652;DHT22;43480;53.116;6.734;2022-08-05T05:25:34;18.10;99.90
57652;DHT22;43480;53.116;6.734;2022-08-05T05:28:00;18.10;99.90
57652;DHT22;43480;53.116;6.734;2022-08-05T05:30:25;18.00;99.90
57652;DHT22;43480;53.116;6.734;2022-08-05T05:32:51;18.10;99.90
57652;DHT22;43480;53.116;6.734;2022-08-05T05:35:17;18.00;99.90
57652;DHT22;43480;53.116;6.734;2022-08-05T05:37:46;17.90;99.90
57652;DHT22;43480;53.116;6.734;2022-08-05T05:40:16;17.90;99.90
57652;DHT22;43480;53.116;6.734;2022-08-05T05:42:41;17.80;99.90
57652;DHT22;43480;53.116;6.734;2022-08-05T05:45:07;17.80;99.90
57652;DHT22;43480;53.116;6.734;2022-08-05T05:47:33;17.80;99.90
57652;DHT22;43480;53.116;6.734;2022-08-05T05:49:59;17.70;99.90
57652;DHT22;43480;53.116;6.734;2022-08-05T05:52:25;17.70;99.90
57652;DHT22;43480;53.116;6.734;2022-08-05T05:54:50;17.70;99.90
57652;DHT22;43480;53.116;6.734;2022-08-05T05:57:15;17.70;99.90
57652;DHT22;43480;53.116;6.734;2022-08-05T05:59:41;17.70;99.90
57652;DHT22;43480;53.116;6.734;2022-08-05T06:02:06;17.70;99.90
57652;DHT22;43480;53.116;6.734;2022-08-05T06:04:32;17.70;99.90
57652;DHT22;43480;53.116;6.734;2022-08-05T06:06:57;17.70;99.90
57652;DHT22;43480;53.116;6.734;2022-08-05T06:09:23;17.70;99.90
57652;DHT22;43480;53.116;6.734;2022-08-05T06:11:48;17.80;99.90
57652;DHT22;43480;53.116;6.734;2022-08-05T06:14:14;17.80;99.90
57652;DHT22;43480;53.116;6.734;2022-08-05T06:16:39;17.80;99.90
57652;DHT22;43480;53.116;6.734;2022-08-05T06:19:05;17.90;99.90
57652;DHT22;43480;53.116;6.734;2022-08-05T06:21:30;18.00;99.90
57652;DHT22;43480;53.116;6.734;2022-08-05T06:23:59;18.10;99.90
57652;DHT22;43480;53.116;6.734;2022-08-05T06:26:24;18.30;99.90
57652;DHT22;43480;53.116;6.734;2022-08-05T06:28:50;18.40;99.90
57652;DHT22;43480;53.116;6.734;2022-08-05T06:31:16;18.60;99.90
57652;DHT22;43480;53.116;6.734;2022-08-05T06:33:41;18.50;99.90
57652;DHT22;43480;53.116;6.734;2022-08-05T06:36:07;18.60;99.90
57652;DHT22;43480;53.116;6.734;2022-08-05T06:38:32;18.60;99.90
57652;DHT22;43480;53.116;6.734;2022-08-05T06:40:58;18.60;99.90
57652;DHT22;43480;53.116;6.734;2022-08-05T06:43:23;18.70;99.90
57652;DHT22;43480;53.116;6.734;2022-08-05T06:45:49;18.90;99.90
57652;DHT22;43480;53.116;6.734;2022-08-05T06:48:15;19.00;99.90
57652;DHT22;43480;53.116;6.734;2022-08-05T06:50:40;19.00;99.90
57652;DHT22;43480;53.116;6.734;2022-08-05T06:53:06;19.00;99.90
57652;DHT22;43480;53.116;6.734;2022-08-05T06:55:31;19.00;99.90
57652;DHT22;43480;53.116;6.734;2022-08-05T06:57:57;19.00;99.90
57652;DHT22;43480;53.116;6.734;2022-08-05T07:00:22;18.90;99.90
57652;DHT22;43480;53.116;6.734;2022-08-05T07:02:49;18.90;99.90
57652;DHT22;43480;53.116;6.734;2022-08-05T07:05:14;18.90;99.90
57652;DHT22;43480;53.116;6.734;2022-08-05T07:07:40;18.90;99.90
57652;DHT22;43480;53.116;6.734;2022-08-05T07:10:07;19.00;99.90
57652;DHT22;43480;53.116;6.734;2022-08-05T07:12:32;19.00;99.90
57652;DHT22;43480;53.116;6.734;2022-08-05T07:15:17;19.10;99.90
57652;DHT22;43480;53.116;6.734;2022-08-05T07:18:01;19.40;99.90
57652;DHT22;43480;53.116;6.734;2022-08-05T07:20:26;19.60;99.90
57652;DHT22;43480;53.116;6.734;2022-08-05T07:22:52;19.80;99.90
57652;DHT22;43480;53.116;6.734;2022-08-05T07:25:17;20.00;99.90
57652;DHT22;43480;53.116;6.734;2022-08-05T07:27:43;20.10;99.90
57652;DHT22;43480;53.116;6.734;2022-08-05T07:30:09;20.20;99.90
57652;DHT22;43480;53.116;6.734;2022-08-05T07:32:34;20.10;99.90
57652;DHT22;43480;53.116;6.734;2022-08-05T07:35:00;20.00;99.90
57652;DHT22;43480;53.116;6.734;2022-08-05T07:37:26;20.00;99.90
57652;DHT22;43480;53.116;6.734;2022-08-05T07:39:51;20.00;99.90
57652;DHT22;43480;53.116;6.734;2022-08-05T07:42:17;20.10;99.90
57652;DHT22;43480;53.116;6.734;2022-08-05T07:44:42;20.20;99.90
57652;DHT22;43480;53.116;6.734;2022-08-05T07:47:08;20.30;99.90
57652;DHT22;43480;53.116;6.734;2022-08-05T07:49:33;20.20;99.90
57652;DHT22;43480;53.116;6.734;2022-08-05T07:51:59;20.10;99.90
57652;DHT22;43480;53.116;6.734;2022-08-05T07:54:24;20.00;99.90
57652;DHT22;43480;53.116;6.734;2022-08-05T07:56:53;20.00;99.90
57652;DHT22;43480;53.116;6.734;2022-08-05T07:59:18;20.00;99.90
57652;DHT22;43480;53.116;6.734;2022-08-05T08:01:44;19.90;99.90
57652;DHT22;43480;53.116;6.734;2022-08-05T08:04:09;19.90;99.90
57652;DHT22;43480;53.116;6.734;2022-08-05T08:06:35;19.90;99.90
57652;DHT22;43480;53.116;6.734;2022-08-05T08:09:00;19.90;99.90
57652;DHT22;43480;53.116;6.734;2022-08-05T08:11:26;19.80;99.90
57652;DHT22;43480;53.116;6.734;2022-08-05T08:13:53;19.90;99.90
57652;DHT22;43480;53.116;6.734;2022-08-05T08:16:18;19.90;99.90
57652;DHT22;43480;53.116;6.734;2022-08-05T08:18:44;20.00;99.90
57652;DHT22;43480;53.116;6.734;2022-08-05T08:21:10;19.90;99.90
57652;DHT22;43480;53.116;6.734;2022-08-05T08:23:35;19.80;99.90
57652;DHT22;43480;53.116;6.734;2022-08-05T08:26:01;19.80;99.90
57652;DHT22;43480;53.116;6.734;2022-08-05T08:28:27;20.00;99.90
57652;DHT22;43480;53.116;6.734;2022-08-05T08:30:52;20.30;99.90
57652;DHT22;43480;53.116;6.734;2022-08-05T08:33:18;20.60;99.90
57652;DHT22;43480;53.116;6.734;2022-08-05T08:35:43;20.90;99.90
57652;DHT22;43480;53.116;6.734;2022-08-05T08:38:09;21.20;99.90
57652;DHT22;43480;53.116;6.734;2022-08-05T08:40:35;21.20;99.90
57652;DHT22;43480;53.116;6.734;2022-08-05T08:43:02;21.20;99.90
57652;DHT22;43480;53.116;6.734;2022-08-05T08:45:29;21.00;99.90
57652;DHT22;43480;53.116;6.734;2022-08-05T08:47:54;21.00;99.90
57652;DHT22;43480;53.116;6.734;2022-08-05T08:50:20;21.10;99.90
57652;DHT22;43480;53.116;6.734;2022-08-05T08:52:51;21.30;99.90
57652;DHT22;43480;53.116;6.734;2022-08-05T08:55:17;21.40;99.90
57652;DHT22;43480;53.116;6.734;2022-08-05T08:57:44;21.60;99.90
57652;DHT22;43480;53.116;6.734;2022-08-05T09:00:10;21.70;99.90
57652;DHT22;43480;53.116;6.734;2022-08-05T09:02:35;21.70;99.90
57652;DHT22;43480;53.116;6.734;2022-08-05T09:05:02;21.80;99.90
57652;DHT22;43480;53.116;6.734;2022-08-05T09:07:27;21.80;99.70
57652;DHT22;43480;53.116;6.734;2022-08-05T09:09:53;21.50;99.90
57652;DHT22;43480;53.116;6.734;2022-08-05T09:12:18;21.10;99.90
57652;DHT22;43480;53.116;6.734;2022-08-05T09:14:44;20.80;99.90
57652;DHT22;43480;53.116;6.734;2022-08-05T09:17:10;20.80;99.90
57652;DHT22;43480;53.116;6.734;2022-08-05T09:19:38;21.00;99.90
57652;DHT22;43480;53.116;6.734;2022-08-05T09:22:04;21.20;99.90
57652;DHT22;43480;53.116;6.734;2022-08-05T09:24:29;21.20;99.90
57652;DHT22;43480;53.116;6.734;2022-08-05T09:26:56;21.20;99.90
57652;DHT22;43480;53.116;6.734;2022-08-05T09:29:35;21.20;99.90
57652;DHT22;43480;53.116;6.734;2022-08-05T09:32:02;21.30;99.90
57652;DHT22;43480;53.116;6.734;2022-08-05T09:34:33;21.60;99.90
57652;DHT22;43480;53.116;6.734;2022-08-05T09:37:15;21.40;99.90
57652;DHT22;43480;53.116;6.734;2022-08-05T09:39:41;21.10;99.90
57652;DHT22;43480;53.116;6.734;2022-08-05T09:42:06;20.90;99.90
57652;DHT22;43480;53.116;6.734;2022-08-05T09:44:39;20.90;99.90
57652;DHT22;43480;53.116;6.734;2022-08-05T09:47:06;21.20;99.90
57652;DHT22;43480;53.116;6.734;2022-08-05T09:49:31;21.30;99.90
57652;DHT22;43480;53.116;6.734;2022-08-05T09:51:57;21.20;99.90
57652;DHT22;43480;53.116;6.734;2022-08-05T09:54:29;20.70;99.90
57652;DHT22;43480;53.116;6.734;2022-08-05T09:56:55;20.70;99.80
57652;DHT22;43480;53.116;6.734;2022-08-05T09:59:22;20.80;99.90
57652;DHT22;43480;53.116;6.734;2022-08-05T10:01:48;21.30;98.50
57652;DHT22;43480;53.116;6.734;2022-08-05T10:04:14;21.50;98.30
57652;DHT22;43480;53.116;6.734;2022-08-05T10:06:40;21.60;97.70
57652;DHT22;43480;53.116;6.734;2022-08-05T10:09:10;21.60;97.40
57652;DHT22;43480;53.116;6.734;2022-08-05T10:11:36;21.60;96.30
57652;DHT22;43480;53.116;6.734;2022-08-05T10:16:46;21.80;93.70
57652;DHT22;43480;53.116;6.734;2022-08-05T10:19:12;21.90;93.50
57652;DHT22;43480;53.116;6.734;2022-08-05T10:21:38;22.00;92.70
57652;DHT22;43480;53.116;6.734;2022-08-05T10:24:03;22.00;91.30
57652;DHT22;43480;53.116;6.734;2022-08-05T10:26:29;22.20;91.40
57652;DHT22;43480;53.116;6.734;2022-08-05T10:28:55;22.40;91.20
57652;DHT22;43480;53.116;6.734;2022-08-05T10:31:20;22.40;92.40
57652;DHT22;43480;53.116;6.734;2022-08-05T10:33:46;22.40;87.70
57652;DHT22;43480;53.116;6.734;2022-08-05T10:36:12;22.30;87.10
57652;DHT22;43480;53.116;6.734;2022-08-05T10:38:37;22.30;86.90
57652;DHT22;43480;53.116;6.734;2022-08-05T10:43:56;22.30;87.70
57652;DHT22;43480;53.116;6.734;2022-08-05T10:46:23;22.30;88.80
57652;DHT22;43480;53.116;6.734;2022-08-05T10:49:06;22.40;88.50
57652;DHT22;43480;53.116;6.734;2022-08-05T10:51:40;22.50;86.30
57652;DHT22;43480;53.116;6.734;2022-08-05T10:54:06;22.50;77.70
57652;DHT22;43480;53.116;6.734;2022-08-05T10:56:36;22.50;77.90
57652;DHT22;43480;53.116;6.734;2022-08-05T10:59:07;22.50;72.50
57652;DHT22;43480;53.116;6.734;2022-08-05T11:03:59;22.60;67.20
57652;DHT22;43480;53.116;6.734;2022-08-05T11:06:26;22.70;62.80
57652;DHT22;43480;53.116;6.734;2022-08-05T11:11:35;23.00;58.50
57652;DHT22;43480;53.116;6.734;2022-08-05T11:14:01;23.10;58.40
57652;DHT22;43480;53.116;6.734;2022-08-05T11:16:28;23.20;61.30
57652;DHT22;43480;53.116;6.734;2022-08-05T11:21:38;23.40;59.20
57652;DHT22;43480;53.116;6.734;2022-08-05T11:24:07;23.30;59.30
57652;DHT22;43480;53.116;6.734;2022-08-05T11:26:35;23.20;60.60
57652;DHT22;43480;53.116;6.734;2022-08-05T11:29:02;23.20;59.80
57652;DHT22;43480;53.116;6.734;2022-08-05T11:31:28;23.50;60.30
57652;DHT22;43480;53.116;6.734;2022-08-05T11:34:01;23.40;59.60
57652;DHT22;43480;53.116;6.734;2022-08-05T11:36:40;23.10;58.20
57652;DHT22;43480;53.116;6.734;2022-08-05T11:39:08;22.70;60.10
57652;DHT22;43480;53.116;6.734;2022-08-05T11:41:34;22.30;61.80
57652;DHT22;43480;53.116;6.734;2022-08-05T11:44:01;22.00;64.10
57652;DHT22;43480;53.116;6.734;2022-08-05T11:46:34;22.10;65.20
57652;DHT22;43480;53.116;6.734;2022-08-05T11:49:00;22.20;63.30
57652;DHT22;43480;53.116;6.734;2022-08-05T11:51:26;22.10;62.40
57652;DHT22;43480;53.116;6.734;2022-08-05T11:53:52;21.90;62.10
57652;DHT22;43480;53.116;6.734;2022-08-05T11:56:18;21.80;63.40
57652;DHT22;43480;53.116;6.734;2022-08-05T11:58:44;21.60;67.90
57652;DHT22;43480;53.116;6.734;2022-08-05T12:01:11;21.80;70.50
57652;DHT22;43480;53.116;6.734;2022-08-05T12:06:06;22.30;69.10
57652;DHT22;43480;53.116;6.734;2022-08-05T12:08:31;22.20;66.90
57652;DHT22;43480;53.116;6.734;2022-08-05T12:10:57;22.10;69.00
57652;DHT22;43480;53.116;6.734;2022-08-05T12:13:24;22.00;65.90
57652;DHT22;43480;53.116;6.734;2022-08-05T12:15:50;21.70;65.40
57652;DHT22;43480;53.116;6.734;2022-08-05T12:18:18;21.60;68.20
57652;DHT22;43480;53.116;6.734;2022-08-05T12:20:51;22.00;70.60
57652;DHT22;43480;53.116;6.734;2022-08-05T12:23:16;22.30;66.70
57652;DHT22;43480;53.116;6.734;2022-08-05T12:25:51;22.70;68.20
57652;DHT22;43480;53.116;6.734;2022-08-05T12:28:31;23.10;64.20
57652;DHT22;43480;53.116;6.734;2022-08-05T12:30:56;23.30;64.00
57652;DHT22;43480;53.116;6.734;2022-08-05T12:33:23;23.10;65.00
57652;DHT22;43480;53.116;6.734;2022-08-05T12:35:48;23.20;67.40
57652;DHT22;43480;53.116;6.734;2022-08-05T12:38:14;23.60;66.30
57652;DHT22;43480;53.116;6.734;2022-08-05T12:40:39;23.50;68.00
57652;DHT22;43480;53.116;6.734;2022-08-05T12:43:05;22.90;73.00
57652;DHT22;43480;53.116;6.734;2022-08-05T12:45:31;22.20;72.50
57652;DHT22;43480;53.116;6.734;2022-08-05T12:47:56;21.80;72.50
57652;DHT22;43480;53.116;6.734;2022-08-05T12:50:22;21.50;74.90
57652;DHT22;43480;53.116;6.734;2022-08-05T12:52:57;22.10;74.70
57652;DHT22;43480;53.116;6.734;2022-08-05T12:55:27;22.40;72.70
57652;DHT22;43480;53.116;6.734;2022-08-05T12:57:54;22.40;73.40
57652;DHT22;43480;53.116;6.734;2022-08-05T13:00:20;22.80;73.70
57652;DHT22;43480;53.116;6.734;2022-08-05T13:02:45;23.20;72.00
57652;DHT22;43480;53.116;6.734;2022-08-05T13:05:11;23.50;72.20
57652;DHT22;43480;53.116;6.734;2022-08-05T13:07:38;23.60;71.00
57652;DHT22;43480;53.116;6.734;2022-08-05T13:10:04;23.60;70.60
57652;DHT22;43480;53.116;6.734;2022-08-05T13:12:37;23.30;70.40
57652;DHT22;43480;53.116;6.734;2022-08-05T13:15:03;23.30;72.00
57652;DHT22;43480;53.116;6.734;2022-08-05T13:17:30;23.60;71.90
57652;DHT22;43480;53.116;6.734;2022-08-05T13:22:24;23.90;62.70
57652;DHT22;43480;53.116;6.734;2022-08-05T13:24:50;23.50;62.90
57652;DHT22;43480;53.116;6.734;2022-08-05T13:27:25;22.90;66.00
57652;DHT22;43480;53.116;6.734;2022-08-05T13:29:51;22.60;67.30
57652;DHT22;43480;53.116;6.734;2022-08-05T13:32:16;22.50;68.60
57652;DHT22;43480;53.116;6.734;2022-08-05T13:34:42;22.50;65.60
57652;DHT22;43480;53.116;6.734;2022-08-05T13:37:07;22.20;67.00
57652;DHT22;43480;53.116;6.734;2022-08-05T13:39:33;22.00;68.40
57652;DHT22;43480;53.116;6.734;2022-08-05T13:41:58;21.70;68.10
57652;DHT22;43480;53.116;6.734;2022-08-05T13:44:24;21.60;69.60
57652;DHT22;43480;53.116;6.734;2022-08-05T13:46:49;21.60;70.40
57652;DHT22;43480;53.116;6.734;2022-08-05T13:49:14;21.50;70.20
57652;DHT22;43480;53.116;6.734;2022-08-05T13:51:40;21.50;71.70
57652;DHT22;43480;53.116;6.734;2022-08-05T13:54:09;21.40;74.80
57652;DHT22;43480;53.116;6.734;2022-08-05T13:56:35;21.60;75.70
57652;DHT22;43480;53.116;6.734;2022-08-05T13:59:00;22.20;73.00
57652;DHT22;43480;53.116;6.734;2022-08-05T14:01:26;22.30;70.80
57652;DHT22;43480;53.116;6.734;2022-08-05T14:03:51;22.10;71.40
57652;DHT22;43480;53.116;6.734;2022-08-05T14:06:35;22.30;72.60
57652;DHT22;43480;53.116;6.734;2022-08-05T14:09:02;22.30;70.80
57652;DHT22;43480;53.116;6.734;2022-08-05T14:11:27;22.00;70.40
57652;DHT22;43480;53.116;6.734;2022-08-05T14:13:53;21.90;70.60
57652;DHT22;43480;53.116;6.734;2022-08-05T14:16:18;22.50;65.20
57652;DHT22;43480;53.116;6.734;2022-08-05T14:18:44;23.50;66.50
57652;DHT22;43480;53.116;6.734;2022-08-05T14:21:09;24.10;63.30
57652;DHT22;43480;53.116;6.734;2022-08-05T14:23:35;24.10;64.30
57652;DHT22;43480;53.116;6.734;2022-08-05T14:26:01;23.60;64.70
57652;DHT22;43480;53.116;6.734;2022-08-05T14:28:27;23.40;64.00
57652;DHT22;43480;53.116;6.734;2022-08-05T14:30:53;23.30;64.60
57652;DHT22;43480;53.116;6.734;2022-08-05T14:33:18;23.60;65.00
57652;DHT22;43480;53.116;6.734;2022-08-05T14:35:44;24.00;69.20
57652;DHT22;43480;53.116;6.734;2022-08-05T14:38:09;23.90;65.80
57652;DHT22;43480;53.116;6.734;2022-08-05T14:40:35;23.50;69.20
57652;DHT22;43480;53.116;6.734;2022-08-05T14:43:00;23.60;71.50
57652;DHT22;43480;53.116;6.734;2022-08-05T14:45:26;23.80;70.40
57652;DHT22;43480;53.116;6.734;2022-08-05T14:47:51;24.00;71.10
57652;DHT22;43480;53.116;6.734;2022-08-05T14:50:17;24.20;66.60
57652;DHT22;43480;53.116;6.734;2022-08-05T14:52:42;24.10;66.00
57652;DHT22;43480;53.116;6.734;2022-08-05T14:55:08;24.00;66.80
57652;DHT22;43480;53.116;6.734;2022-08-05T14:57:35;24.10;67.60
57652;DHT22;43480;53.116;6.734;2022-08-05T15:00:00;24.30;67.20
57652;DHT22;43480;53.116;6.734;2022-08-05T15:02:26;24.30;66.20
57652;DHT22;43480;53.116;6.734;2022-08-05T15:04:51;24.20;64.70
57652;DHT22;43480;53.116;6.734;2022-08-05T15:07:17;24.30;67.50
57652;DHT22;43480;53.116;6.734;2022-08-05T15:09:42;24.80;66.30
57652;DHT22;43480;53.116;6.734;2022-08-05T15:12:08;25.20;65.00
57652;DHT22;43480;53.116;6.734;2022-08-05T15:14:34;25.50;61.60
57652;DHT22;43480;53.116;6.734;2022-08-05T15:16:59;25.50;61.20
57652;DHT22;43480;53.116;6.734;2022-08-05T15:19:25;25.00;60.40
57652;DHT22;43480;53.116;6.734;2022-08-05T15:21:50;24.50;60.20
57652;DHT22;43480;53.116;6.734;2022-08-05T15:24:16;23.70;61.30
57652;DHT22;43480;53.116;6.734;2022-08-05T15:26:41;23.00;64.30
57652;DHT22;43480;53.116;6.734;2022-08-05T15:29:07;22.60;65.70
57652;DHT22;43480;53.116;6.734;2022-08-05T15:31:32;22.50;65.80
57652;DHT22;43480;53.116;6.734;2022-08-05T15:33:58;22.10;68.30
57652;DHT22;43480;53.116;6.734;2022-08-05T15:36:23;22.00;67.30
57652;DHT22;43480;53.116;6.734;2022-08-05T15:38:49;22.40;67.70
57652;DHT22;43480;53.116;6.734;2022-08-05T15:41:14;22.90;65.10
57652;DHT22;43480;53.116;6.734;2022-08-05T15:43:40;23.60;64.10
57652;DHT22;43480;53.116;6.734;2022-08-05T15:46:05;24.10;62.10
57652;DHT22;43480;53.116;6.734;2022-08-05T15:48:31;24.20;60.60
57652;DHT22;43480;53.116;6.734;2022-08-05T15:50:56;23.60;60.80
57652;DHT22;43480;53.116;6.734;2022-08-05T15:53:22;23.20;62.40
57652;DHT22;43480;53.116;6.734;2022-08-05T15:55:48;23.60;62.50
57652;DHT22;43480;53.116;6.734;2022-08-05T15:58:13;24.10;62.30